Time;durP1;ratioP1;P1;durP2;ratioP2;P2;SDS_P1;SDS_P2;PMS_P1;PMS_P2;Temp;Humidity;BMP_temperature;BMP_pressure;BME280_temperature;BME280_humidity;BME280_pressure;Samples;Min_cycle;Max_cycle;Signal;HPM_P1;HPM_P2
2021/11/22 00:00:29;;;;;;;44.22;17.08;;;4.70;99.90;;;;;;5110317;28;20050;-68
2021/11/22 00:02:56;;;;;;;48.17;17.92;;;4.70;99.90;;;;;;5111698;28;20035;-69
2021/11/22 00:05:22;;;;;;;46.67;17.02;;;4.80;99.90;;;;;;5111256;28;20106;-68
2021/11/22 00:07:48;;;;;;;46.42;18.02;;;4.80;99.90;;;;;;5113087;28;20104;-69
2021/11/22 00:10:14;;;;;;;46.30;17.45;;;4.80;99.90;;;;;;5111542;28;20181;-68
2021/11/22 00:12:39;;;;;;;43.97;16.73;;;4.80;99.90;;;;;;5088024;28;20036;-68
2021/11/22 00:15:09;;;;;;;49.55;18.77;;;4.80;99.90;;;;;;5100694;28;20028;-68
2021/11/22 00:17:35;;;;;;;50.15;18.67;;;4.90;99.90;;;;;;5112566;28;20442;-67
2021/11/22 00:20:03;;;;;;;48.38;19.52;;;4.90;99.90;;;;;;5111878;28;20053;-68
2021/11/22 00:22:29;;;;;;;45.58;18.17;;;4.90;99.90;;;;;;5079525;28;20062;-68
2021/11/22 00:24:55;;;;;;;44.05;17.45;;;4.90;99.90;;;;;;5110703;28;20055;-69
2021/11/22 00:27:21;;;;;;;44.42;17.75;;;4.90;99.90;;;;;;5108834;28;20073;-69
2021/11/22 00:29:46;;;;;;;52.63;18.45;;;5.00;99.90;;;;;;5112329;28;20020;-68
2021/11/22 00:32:12;;;;;;;39.63;17.40;;;5.00;99.90;;;;;;5109994;28;20028;-69
2021/11/22 00:34:41;;;;;;;49.45;18.00;;;5.00;99.90;;;;;;5111237;28;20067;-69
2021/11/22 00:37:13;;;;;;;46.67;17.48;;;5.00;99.90;;;;;;5096448;28;20024;-68
2021/11/22 00:39:39;;;;;;;46.35;17.23;;;5.00;99.90;;;;;;5109413;28;20039;-69
2021/11/22 00:42:07;;;;;;;50.20;18.42;;;5.00;99.90;;;;;;5111605;28;20027;-69
2021/11/22 00:44:33;;;;;;;53.25;18.55;;;5.00;99.90;;;;;;5086344;28;20391;-68
2021/11/22 00:46:59;;;;;;;49.58;19.58;;;5.00;99.90;;;;;;5110846;28;20416;-68
2021/11/22 00:49:24;;;;;;;52.20;19.13;;;5.00;99.90;;;;;;5103185;28;20024;-68
2021/11/22 00:51:50;;;;;;;55.08;19.75;;;5.00;99.90;;;;;;5112295;28;20023;-68
2021/11/22 00:54:16;;;;;;;66.07;22.20;;;5.00;99.90;;;;;;5109579;28;20475;-68
2021/11/22 00:56:41;;;;;;;72.60;21.92;;;5.00;99.90;;;;;;5112048;28;20055;-68
2021/11/22 00:59:07;;;;;;;70.97;22.33;;;5.00;99.90;;;;;;5110233;28;20073;-69
2021/11/22 01:01:33;;;;;;;65.10;21.98;;;4.90;99.90;;;;;;5112055;28;20026;-68
2021/11/22 01:03:58;;;;;;;81.30;22.77;;;4.90;99.90;;;;;;5091705;28;20043;-68
2021/11/22 01:06:24;;;;;;;67.63;21.55;;;4.90;99.90;;;;;;5111157;28;20043;-68
2021/11/22 01:08:49;;;;;;;77.28;22.98;;;5.00;99.90;;;;;;5107359;28;20044;-69
2021/11/22 01:11:15;;;;;;;75.63;22.33;;;5.00;99.90;;;;;;5112045;28;20012;-69
2021/11/22 01:13:40;;;;;;;79.97;21.95;;;4.90;99.90;;;;;;5101999;28;20038;-69
2021/11/22 01:16:06;;;;;;;78.88;21.77;;;5.00;99.90;;;;;;5093635;28;20024;-68
2021/11/22 01:18:32;;;;;;;69.45;21.75;;;4.90;99.90;;;;;;5105823;28;20115;-68
2021/11/22 01:20:58;;;;;;;63.55;21.17;;;4.90;99.90;;;;;;5111781;28;20483;-69
2021/11/22 01:23:23;;;;;;;61.55;20.30;;;4.90;99.90;;;;;;5104801;28;20092;-68
2021/11/22 01:25:49;;;;;;;53.33;18.48;;;5.00;99.90;;;;;;5110381;28;20502;-69
2021/11/22 01:28:15;;;;;;;44.72;17.13;;;5.00;99.90;;;;;;5100754;28;20051;-69
2021/11/22 01:30:42;;;;;;;39.50;16.02;;;5.00;99.90;;;;;;5091369;28;20143;-68
2021/11/22 01:33:07;;;;;;;45.85;17.05;;;5.00;99.90;;;;;;5082623;28;20016;-68
2021/11/22 01:35:33;;;;;;;44.15;16.02;;;5.10;99.90;;;;;;5091228;28;20020;-68
2021/11/22 01:37:58;;;;;;;41.08;15.52;;;5.10;99.90;;;;;;5083321;28;20070;-68
2021/11/22 01:40:26;;;;;;;36.75;15.15;;;5.10;99.90;;;;;;5096966;28;20028;-69
2021/11/22 01:42:53;;;;;;;45.25;15.73;;;5.10;99.90;;;;;;5101382;28;21198;-68
2021/11/22 01:45:20;;;;;;;35.92;14.52;;;5.10;99.90;;;;;;5108468;28;20035;-68
2021/11/22 01:47:47;;;;;;;34.33;13.93;;;5.10;99.90;;;;;;5089103;28;20024;-69
2021/11/22 01:50:15;;;;;;;38.78;14.55;;;5.10;99.90;;;;;;5108130;28;20024;-69
2021/11/22 01:52:42;;;;;;;28.73;13.27;;;5.10;99.90;;;;;;5100094;28;20024;-68
2021/11/22 01:55:09;;;;;;;36.17;13.98;;;5.10;99.90;;;;;;5110360;28;20024;-69
2021/11/22 01:57:36;;;;;;;34.63;13.65;;;5.20;99.90;;;;;;5109040;28;20391;-68
2021/11/22 02:00:09;;;;;;;33.10;13.88;;;5.20;99.90;;;;;;5105748;28;20034;-69
2021/11/22 02:02:34;;;;;;;33.83;13.35;;;5.20;99.90;;;;;;5091068;28;20139;-68
2021/11/22 02:05:00;;;;;;;32.97;13.55;;;5.20;99.90;;;;;;5110521;28;20080;-68
2021/11/22 02:07:25;;;;;;;32.17;13.05;;;5.20;99.90;;;;;;5110300;28;20023;-68
2021/11/22 02:09:51;;;;;;;30.38;13.05;;;5.20;99.90;;;;;;5109783;28;20023;-68
2021/11/22 02:12:17;;;;;;;35.65;13.63;;;5.20;99.90;;;;;;5105728;28;20495;-68
2021/11/22 02:14:42;;;;;;;29.92;13.32;;;5.20;99.90;;;;;;5103076;28;20042;-69
2021/11/22 02:17:09;;;;;;;36.03;12.82;;;5.20;99.90;;;;;;5107581;28;20352;-68
2021/11/22 02:19:38;;;;;;;27.10;11.55;;;5.20;99.90;;;;;;5092315;28;20020;-69
2021/11/22 02:22:04;;;;;;;29.65;12.68;;;5.20;99.90;;;;;;5103422;28;20106;-68
2021/11/22 02:24:30;;;;;;;27.15;11.38;;;5.20;99.90;;;;;;5074985;28;20142;-68
2021/11/22 02:26:56;;;;;;;27.98;11.25;;;5.30;99.90;;;;;;5110364;28;20103;-68
2021/11/22 02:29:22;;;;;;;26.70;10.80;;;5.20;99.90;;;;;;5108795;28;20100;-68
2021/11/22 02:31:48;;;;;;;26.00;11.50;;;5.30;99.90;;;;;;5092881;28;20111;-69
2021/11/22 02:34:14;;;;;;;23.05;10.43;;;5.20;99.90;;;;;;5093386;28;20028;-68
2021/11/22 02:36:40;;;;;;;25.25;10.88;;;5.20;99.90;;;;;;5110186;28;20035;-68
2021/11/22 02:39:06;;;;;;;25.13;10.57;;;5.20;99.90;;;;;;5109594;28;20111;-68
2021/11/22 02:41:34;;;;;;;20.92;9.68;;;5.30;99.90;;;;;;5109459;28;20027;-68
2021/11/22 02:44:00;;;;;;;27.42;10.60;;;5.30;99.90;;;;;;5092611;28;20062;-68
2021/11/22 02:46:26;;;;;;;22.23;10.23;;;5.30;99.90;;;;;;5099001;28;20016;-68
2021/11/22 02:48:52;;;;;;;24.77;10.13;;;5.30;99.90;;;;;;5102476;28;20058;-69
2021/11/22 02:51:17;;;;;;;19.27;8.85;;;5.30;99.90;;;;;;5099239;28;20052;-69
2021/11/22 02:53:43;;;;;;;23.20;9.93;;;5.30;99.90;;;;;;5089163;28;20111;-68
2021/11/22 02:56:10;;;;;;;18.35;9.57;;;5.30;99.90;;;;;;5101021;28;20085;-68
2021/11/22 02:58:38;;;;;;;18.85;9.18;;;5.30;99.90;;;;;;5090186;28;20107;-69
2021/11/22 03:01:07;;;;;;;18.50;8.57;;;5.20;99.90;;;;;;5102266;28;20082;-68
2021/11/22 03:03:33;;;;;;;18.55;8.93;;;5.30;99.90;;;;;;5088879;28;20440;-68
2021/11/22 03:06:04;;;;;;;26.92;9.63;;;5.30;99.90;;;;;;5093748;28;20035;-68
2021/11/22 03:08:30;;;;;;;23.00;10.13;;;5.30;99.90;;;;;;5107181;28;20116;-68
2021/11/22 03:10:55;;;;;;;24.23;10.80;;;5.30;99.90;;;;;;5109919;28;20471;-68
2021/11/22 03:13:21;;;;;;;21.60;9.75;;;5.30;99.90;;;;;;5113013;28;20036;-69
2021/11/22 03:15:47;;;;;;;25.33;10.45;;;5.30;99.90;;;;;;5105583;28;20029;-68
2021/11/22 03:18:12;;;;;;;22.58;10.25;;;5.30;99.90;;;;;;5105607;28;20245;-69
2021/11/22 03:20:38;;;;;;;24.75;9.98;;;5.30;99.90;;;;;;5097301;28;20308;-68
2021/11/22 03:23:03;;;;;;;23.08;9.85;;;5.30;99.90;;;;;;5111658;28;20394;-68
2021/11/22 03:25:31;;;;;;;24.70;10.85;;;5.20;99.90;;;;;;5108885;28;20152;-68
2021/11/22 03:27:58;;;;;;;23.98;9.90;;;5.20;99.90;;;;;;5111755;28;20019;-69
2021/11/22 03:30:23;;;;;;;19.83;10.02;;;5.30;99.90;;;;;;5114024;28;20020;-68
2021/11/22 03:32:49;;;;;;;26.33;10.95;;;5.30;99.90;;;;;;5110576;28;20527;-69
2021/11/22 03:35:15;;;;;;;25.77;10.98;;;5.30;99.90;;;;;;5110522;28;20024;-69
2021/11/22 03:37:42;;;;;;;21.15;10.07;;;5.20;99.90;;;;;;5110596;28;20032;-68
2021/11/22 03:40:10;;;;;;;23.25;10.98;;;5.20;99.90;;;;;;5111009;28;20104;-68
2021/11/22 03:45:40;;;;;;;21.00;9.68;;;5.20;99.90;;;;;;5049805;28;20107;-69
2021/11/22 03:48:06;;;;;;;19.17;9.55;;;5.20;99.90;;;;;;5094651;28;20403;-69
2021/11/22 03:50:32;;;;;;;19.25;9.68;;;5.30;99.90;;;;;;5099736;28;22050;-68
2021/11/22 03:52:58;;;;;;;17.95;9.52;;;5.30;99.90;;;;;;5098532;28;20105;-68
2021/11/22 03:55:25;;;;;;;18.27;9.10;;;5.30;99.90;;;;;;5102838;27;20015;-68
2021/11/22 03:57:51;;;;;;;15.07;8.23;;;5.30;99.90;;;;;;5101962;28;20077;-69
2021/11/22 04:00:17;;;;;;;15.77;8.32;;;5.30;99.90;;;;;;5105342;28;20032;-68
2021/11/22 04:02:43;;;;;;;16.90;8.00;;;5.30;99.90;;;;;;5111004;28;20055;-68
2021/11/22 04:05:09;;;;;;;15.45;7.97;;;5.30;99.90;;;;;;5108839;28;20053;-69
2021/11/22 04:07:35;;;;;;;14.65;7.45;;;5.30;99.90;;;;;;5109056;28;20023;-68
2021/11/22 04:10:00;;;;;;;12.35;7.22;;;5.30;99.90;;;;;;5086037;28;20636;-68
2021/11/22 04:12:26;;;;;;;13.07;7.35;;;5.30;99.90;;;;;;5108577;22;20774;-65
2021/11/22 04:14:52;;;;;;;13.77;6.82;;;5.30;99.90;;;;;;5007982;28;20034;-66
2021/11/22 04:17:17;;;;;;;9.88;6.32;;;5.30;99.90;;;;;;5007628;28;20037;-65
2021/11/22 04:19:43;;;;;;;11.80;6.45;;;5.30;99.90;;;;;;5007705;28;20032;-63
2021/11/22 04:22:09;;;;;;;10.70;6.28;;;5.30;99.90;;;;;;4999650;28;20079;-65
2021/11/22 04:24:35;;;;;;;11.73;6.55;;;5.30;99.90;;;;;;5019851;28;20030;-65
2021/11/22 04:27:02;;;;;;;12.18;6.80;;;5.30;99.90;;;;;;5085546;28;20393;-64
2021/11/22 04:29:28;;;;;;;13.40;6.30;;;5.30;99.90;;;;;;5006959;28;20026;-65
2021/11/22 04:31:53;;;;;;;13.15;7.05;;;5.30;99.90;;;;;;5009555;28;20331;-65
2021/11/22 04:34:19;;;;;;;13.70;6.65;;;5.30;99.90;;;;;;5007788;28;20046;-65
2021/11/22 04:36:45;;;;;;;13.63;7.05;;;5.30;99.90;;;;;;5009344;28;20176;-66
2021/11/22 04:39:10;;;;;;;12.13;6.15;;;5.30;99.90;;;;;;5008650;28;20030;-65
2021/11/22 04:41:36;;;;;;;10.82;6.45;;;5.30;99.90;;;;;;5008851;28;20040;-65
2021/11/22 04:44:02;;;;;;;10.70;6.35;;;5.30;99.90;;;;;;5009509;28;20132;-64
2021/11/22 04:46:29;;;;;;;13.95;6.22;;;5.30;99.90;;;;;;5012033;28;20020;-64
2021/11/22 04:48:55;;;;;;;12.60;6.28;;;5.30;99.90;;;;;;5006095;28;20544;-66
2021/11/22 04:51:20;;;;;;;11.25;6.85;;;5.30;99.90;;;;;;5008246;28;20121;-65
2021/11/22 04:53:46;;;;;;;12.00;6.68;;;5.30;99.90;;;;;;5007631;28;20029;-65
2021/11/22 04:56:12;;;;;;;13.30;6.80;;;5.30;99.90;;;;;;5010811;28;20030;-65
2021/11/22 04:58:37;;;;;;;12.48;6.72;;;5.40;99.90;;;;;;5000739;28;20029;-65
2021/11/22 05:01:03;;;;;;;11.13;6.13;;;5.30;99.90;;;;;;5008884;28;20464;-65
2021/11/22 05:03:28;;;;;;;12.82;6.70;;;5.30;99.90;;;;;;5000363;28;20018;-65
2021/11/22 05:05:54;;;;;;;11.32;6.80;;;5.30;99.90;;;;;;5008531;28;20049;-65
2021/11/22 05:08:20;;;;;;;11.63;6.50;;;5.30;99.90;;;;;;5008340;28;20026;-64
2021/11/22 05:10:45;;;;;;;10.05;5.45;;;5.30;99.90;;;;;;5008404;28;20030;-65
2021/11/22 05:13:21;;;;;;;12.15;6.18;;;5.40;99.90;;;;;;5005146;28;20061;-64
2021/11/22 05:15:48;;;;;;;10.85;6.00;;;5.40;99.90;;;;;;5006282;28;20086;-65
2021/11/22 05:18:14;;;;;;;12.80;6.30;;;5.30;99.90;;;;;;5005687;28;20041;-65
2021/11/22 05:20:41;;;;;;;11.35;6.18;;;5.30;99.90;;;;;;5006828;28;20037;-65
2021/11/22 05:23:10;;;;;;;10.32;6.40;;;5.30;99.90;;;;;;5005876;28;20478;-65
2021/11/22 05:25:36;;;;;;;9.57;5.40;;;5.30;99.90;;;;;;5005750;28;20046;-65
2021/11/22 05:28:03;;;;;;;10.20;6.05;;;5.40;99.90;;;;;;5007086;28;20026;-65
2021/11/22 05:30:28;;;;;;;12.15;5.85;;;5.40;99.90;;;;;;5007362;28;20050;-66
2021/11/22 05:32:56;;;;;;;12.45;6.00;;;5.30;99.90;;;;;;5005280;28;20072;-65
2021/11/22 05:35:22;;;;;;;10.70;6.18;;;5.40;99.90;;;;;;5006093;28;20033;-65
2021/11/22 05:37:48;;;;;;;9.20;5.57;;;5.40;99.90;;;;;;5005666;28;20335;-65
2021/11/22 05:40:13;;;;;;;12.00;6.15;;;5.40;99.90;;;;;;5007376;28;20440;-65
2021/11/22 05:42:39;;;;;;;10.00;5.90;;;5.40;99.90;;;;;;5005641;28;20037;-65
2021/11/22 05:45:06;;;;;;;12.93;6.45;;;5.40;99.90;;;;;;5007317;28;20501;-64
2021/11/22 05:47:32;;;;;;;11.57;5.75;;;5.40;99.90;;;;;;5006126;28;20078;-64
2021/11/22 05:50:04;;;;;;;12.43;6.07;;;5.40;99.90;;;;;;5006786;28;20068;-64
2021/11/22 05:52:30;;;;;;;9.68;5.43;;;5.40;99.90;;;;;;5005677;28;20045;-65
2021/11/22 05:54:57;;;;;;;10.85;5.40;;;5.40;99.90;;;;;;5006335;28;20065;-65
2021/11/22 05:57:24;;;;;;;8.68;4.88;;;5.40;99.90;;;;;;5005519;28;20026;-65
2021/11/22 05:59:50;;;;;;;11.00;5.15;;;5.40;99.90;;;;;;5006299;28;20038;-65
2021/11/22 06:02:16;;;;;;;8.80;4.45;;;5.40;99.90;;;;;;5006895;28;20033;-64
2021/11/22 06:04:42;;;;;;;9.80;5.00;;;5.40;99.90;;;;;;5005793;28;20377;-64
2021/11/22 06:07:09;;;;;;;7.18;4.28;;;5.40;99.90;;;;;;5006284;28;20029;-65
2021/11/22 06:09:36;;;;;;;9.32;5.00;;;5.40;99.90;;;;;;5002405;28;20030;-65
2021/11/22 06:12:02;;;;;;;7.85;4.90;;;5.40;99.90;;;;;;4960879;28;1197127;-65
2021/11/22 06:14:28;;;;;;;8.15;4.97;;;5.40;99.90;;;;;;4998163;28;20386;-65
2021/11/22 06:16:53;;;;;;;8.70;4.70;;;5.40;99.90;;;;;;5007115;28;20074;-66
2021/11/22 06:19:20;;;;;;;9.40;4.65;;;5.50;99.90;;;;;;5005479;28;20473;-65
2021/11/22 06:21:46;;;;;;;8.30;4.50;;;5.50;99.90;;;;;;5007647;28;20631;-65
2021/11/22 06:24:12;;;;;;;9.90;5.57;;;5.50;99.90;;;;;;5006292;28;20040;-66
2021/11/22 06:26:38;;;;;;;9.98;5.35;;;5.50;99.90;;;;;;5005075;28;20121;-66
2021/11/22 06:29:03;;;;;;;8.68;5.47;;;5.50;99.90;;;;;;5006221;28;20423;-65
2021/11/22 06:31:29;;;;;;;10.07;5.50;;;5.50;99.90;;;;;;5001799;28;20053;-65
2021/11/22 06:33:55;;;;;;;9.27;5.45;;;5.50;99.90;;;;;;5002346;28;20497;-65
2021/11/22 06:36:21;;;;;;;11.05;6.03;;;5.50;99.90;;;;;;5006974;28;20432;-64
2021/11/22 06:38:46;;;;;;;11.77;5.88;;;5.50;99.90;;;;;;5007335;28;20029;-66
2021/11/22 06:41:12;;;;;;;10.55;5.35;;;5.50;99.90;;;;;;5007462;28;20668;-65
2021/11/22 06:43:37;;;;;;;11.82;6.15;;;5.50;99.90;;;;;;5005511;28;20041;-65
2021/11/22 06:46:03;;;;;;;12.75;6.40;;;5.50;99.90;;;;;;5007996;28;20022;-65
2021/11/22 06:48:29;;;;;;;10.45;6.60;;;5.50;99.90;;;;;;5074044;28;20043;-64
2021/11/22 06:50:55;;;;;;;12.18;6.50;;;5.50;99.90;;;;;;5008616;28;20443;-65
2021/11/22 06:53:21;;;;;;;11.80;6.70;;;5.50;99.90;;;;;;5002248;28;20037;-66
2021/11/22 06:55:51;;;;;;;12.30;6.13;;;5.60;99.90;;;;;;5008974;28;20030;-64
2021/11/22 06:58:17;;;;;;;13.27;6.70;;;5.60;99.90;;;;;;5011010;28;20122;-65
2021/11/22 07:00:42;;;;;;;15.07;6.95;;;5.50;99.90;;;;;;5010406;28;20029;-66
2021/11/22 07:03:08;;;;;;;18.73;7.22;;;5.50;99.90;;;;;;5002885;28;20038;-65
2021/11/22 07:05:34;;;;;;;14.32;7.03;;;5.50;99.90;;;;;;5010537;28;20018;-65
2021/11/22 07:08:00;;;;;;;13.10;6.85;;;5.60;99.90;;;;;;5010825;28;20026;-64
2021/11/22 07:10:26;;;;;;;15.80;7.28;;;5.60;99.90;;;;;;5010512;28;20026;-65
2021/11/22 07:12:53;;;;;;;18.55;7.63;;;5.60;99.90;;;;;;5010046;28;20724;-65
2021/11/22 07:15:23;;;;;;;17.80;7.30;;;5.60;99.90;;;;;;5040542;28;20421;-65
2021/11/22 07:17:52;;;;;;;16.63;7.70;;;5.60;99.90;;;;;;5093418;28;20030;-65
2021/11/22 07:20:19;;;;;;;16.55;8.15;;;5.60;99.90;;;;;;4995389;28;20034;-64
2021/11/22 07:22:45;;;;;;;16.45;7.82;;;5.60;99.90;;;;;;5013271;28;20030;-66
2021/11/22 07:25:11;;;;;;;16.67;7.38;;;5.60;99.90;;;;;;5000809;28;20030;-65
2021/11/22 07:27:37;;;;;;;16.42;8.02;;;5.60;99.90;;;;;;5003383;28;20068;-66
2021/11/22 07:30:05;;;;;;;18.17;7.97;;;5.60;99.90;;;;;;5025584;28;20026;-66
2021/11/22 07:32:31;;;;;;;16.77;8.15;;;5.60;99.90;;;;;;5089947;28;20049;-66
2021/11/22 07:34:58;;;;;;;17.65;8.02;;;5.60;99.90;;;;;;5015086;28;20057;-65
2021/11/22 07:37:23;;;;;;;15.63;8.30;;;5.70;99.90;;;;;;5017499;28;20028;-66
2021/11/22 07:39:49;;;;;;;18.00;9.00;;;5.60;99.90;;;;;;5010332;28;20526;-66
2021/11/22 07:42:15;;;;;;;20.88;9.43;;;5.60;99.90;;;;;;5031688;28;20024;-66
2021/11/22 07:44:41;;;;;;;19.10;8.82;;;5.70;99.90;;;;;;5008368;28;20498;-65
2021/11/22 07:47:08;;;;;;;18.42;8.93;;;5.70;99.90;;;;;;5011352;28;20523;-65
2021/11/22 07:49:34;;;;;;;17.30;9.10;;;5.70;99.90;;;;;;5002043;28;20030;-64
2021/11/22 07:52:00;;;;;;;19.73;8.85;;;5.70;99.90;;;;;;5008160;28;20078;-65
2021/11/22 07:54:26;;;;;;;20.83;9.32;;;5.70;99.90;;;;;;5008650;28;20041;-64
2021/11/22 07:56:52;;;;;;;21.92;10.02;;;5.70;99.90;;;;;;5008221;28;20026;-66
2021/11/22 07:59:20;;;;;;;18.85;8.88;;;5.70;99.90;;;;;;5007929;28;20109;-66
2021/11/22 08:01:46;;;;;;;20.13;9.05;;;5.70;99.90;;;;;;5006324;28;20030;-66
2021/11/22 08:04:15;;;;;;;22.33;9.88;;;5.70;99.90;;;;;;5007637;28;20064;-65
2021/11/22 08:06:48;;;;;;;23.00;9.02;;;5.70;99.90;;;;;;5000682;28;20029;-68
2021/11/22 08:09:24;;;;;;;20.27;10.45;;;5.70;99.90;;;;;;5005738;28;20523;-66
2021/11/22 08:14:34;;;;;;;19.13;9.43;;;5.80;99.90;;;;;;4999007;28;20038;-65
2021/11/22 08:16:59;;;;;;;21.92;9.18;;;5.80;99.90;;;;;;5004103;28;20018;-64
2021/11/22 08:19:25;;;;;;;21.65;8.65;;;5.80;99.90;;;;;;5000556;28;20030;-66
2021/11/22 08:21:51;;;;;;;21.90;9.68;;;5.80;99.90;;;;;;5082122;28;20026;-66
2021/11/22 08:24:16;;;;;;;18.30;9.35;;;5.80;99.90;;;;;;5007427;28;20496;-65
2021/11/22 08:26:42;;;;;;;21.83;9.52;;;5.80;99.90;;;;;;5009640;28;20030;-66
2021/11/22 08:29:08;;;;;;;18.40;8.63;;;5.80;99.90;;;;;;5005744;28;20057;-65
2021/11/22 08:31:33;;;;;;;16.83;8.90;;;5.80;99.90;;;;;;4999787;28;20052;-65
2021/11/22 08:33:59;;;;;;;54.75;28.70;;;5.80;99.90;;;;;;5000325;28;20687;-66
2021/11/22 08:36:25;;;;;;;17.75;9.57;;;5.80;99.90;;;;;;5005031;28;20101;-65
2021/11/22 08:38:52;;;;;;;18.67;8.40;;;5.80;99.90;;;;;;5005237;28;20022;-66
2021/11/22 08:41:18;;;;;;;16.90;8.38;;;5.90;99.90;;;;;;5008063;28;20045;-65
2021/11/22 08:43:44;;;;;;;19.00;9.13;;;5.90;99.90;;;;;;5042871;28;20472;-66
2021/11/22 08:46:09;;;;;;;18.27;9.05;;;5.90;99.90;;;;;;5004059;28;20049;-66
2021/11/22 08:48:35;;;;;;;16.70;8.80;;;5.90;99.90;;;;;;5000901;28;20113;-65
2021/11/22 08:51:03;;;;;;;17.15;8.52;;;5.90;99.90;;;;;;5004537;28;20052;-65
2021/11/22 08:53:29;;;;;;;20.58;9.38;;;5.90;99.90;;;;;;4989009;28;20026;-67
2021/11/22 08:55:55;;;;;;;17.00;8.98;;;5.90;99.90;;;;;;5005636;28;20037;-66
2021/11/22 08:58:20;;;;;;;16.15;9.10;;;5.90;99.90;;;;;;5008735;28;20407;-65
2021/11/22 09:00:46;;;;;;;21.05;9.25;;;5.90;99.90;;;;;;5008692;28;20049;-66
2021/11/22 09:03:12;;;;;;;17.77;8.98;;;5.90;99.90;;;;;;5008055;28;20061;-66
2021/11/22 09:05:38;;;;;;;15.70;9.00;;;5.90;99.90;;;;;;5008812;28;20034;-66
2021/11/22 09:08:04;;;;;;;15.50;8.95;;;5.90;99.90;;;;;;5007189;28;20018;-66
2021/11/22 09:10:30;;;;;;;15.98;8.65;;;5.90;99.90;;;;;;5008542;28;20022;-66
2021/11/22 09:12:56;;;;;;;14.77;7.95;;;5.90;99.90;;;;;;5007459;28;20034;-66
2021/11/22 09:15:22;;;;;;;17.00;7.63;;;5.90;99.90;;;;;;5006698;28;20112;-64
2021/11/22 09:17:48;;;;;;;19.23;8.57;;;5.90;99.90;;;;;;5005728;28;20033;-66
2021/11/22 09:20:14;;;;;;;18.90;8.85;;;5.90;99.90;;;;;;5006834;28;20034;-66
2021/11/22 09:22:40;;;;;;;14.88;8.02;;;5.90;99.90;;;;;;5001892;28;20038;-66
2021/11/22 09:25:07;;;;;;;14.57;7.97;;;6.00;99.90;;;;;;5004739;28;20509;-64
2021/11/22 09:27:33;;;;;;;14.20;7.75;;;6.00;99.90;;;;;;5005797;28;20032;-69
2021/11/22 09:29:59;;;;;;;15.48;7.45;;;6.00;99.90;;;;;;4997497;28;20026;-67
2021/11/22 09:32:25;;;;;;;14.77;7.57;;;6.00;99.90;;;;;;5005900;28;20038;-67
2021/11/22 09:34:50;;;;;;;13.15;7.00;;;6.00;99.90;;;;;;5007305;28;20026;-67
2021/11/22 09:37:16;;;;;;;13.40;6.75;;;6.00;99.90;;;;;;4999866;28;20394;-67
2021/11/22 09:39:43;;;;;;;11.20;7.40;;;6.00;99.90;;;;;;5003112;28;20065;-67
2021/11/22 09:42:09;;;;;;;13.02;6.93;;;6.00;99.90;;;;;;5022303;28;20060;-68
2021/11/22 09:44:35;;;;;;;12.80;6.65;;;6.00;99.90;;;;;;5006573;28;20033;-67
2021/11/22 09:47:01;;;;;;;16.35;7.38;;;6.00;99.90;;;;;;5009422;28;20472;-71
2021/11/22 09:49:27;;;;;;;18.27;7.05;;;6.10;99.90;;;;;;5030019;28;20014;-66
2021/11/22 09:51:53;;;;;;;16.67;6.63;;;6.10;99.90;;;;;;4995102;28;20096;-66
2021/11/22 09:54:24;;;;;;;13.05;7.88;;;6.10;99.90;;;;;;5017519;28;20030;-67
2021/11/22 09:56:52;;;;;;;12.80;7.43;;;6.10;99.90;;;;;;5002789;28;20028;-65
2021/11/22 09:59:20;;;;;;;9.82;6.43;;;6.10;99.90;;;;;;4995166;28;20033;-65
2021/11/22 10:01:52;;;;;;;11.60;6.90;;;6.10;99.90;;;;;;5005978;28;20378;-66
2021/11/22 10:04:19;;;;;;;11.33;6.77;;;6.10;99.90;;;;;;5005778;28;20030;-65
2021/11/22 10:06:53;;;;;;;12.55;7.07;;;6.10;99.90;;;;;;5007862;28;20022;-65
2021/11/22 10:09:34;;;;;;;13.98;7.25;;;6.20;99.90;;;;;;5001718;28;20054;-65
2021/11/22 10:14:59;;;;;;;14.48;6.57;;;6.20;99.90;;;;;;5003970;28;20532;-67
2021/11/22 10:17:38;;;;;;;67.45;37.35;;;6.20;99.90;;;;;;4992874;28;20027;-67
2021/11/22 10:20:07;;;;;;;12.88;6.70;;;6.20;99.90;;;;;;4984849;28;20107;-67
2021/11/22 10:23:07;;;;;;;10.00;5.93;;;6.20;99.90;;;;;;4972748;28;20117;-67
2021/11/22 10:25:35;;;;;;;10.27;6.43;;;6.20;99.90;;;;;;4992342;28;20061;-67
2021/11/22 10:28:05;;;;;;;12.02;6.45;;;6.20;99.90;;;;;;4982884;28;20035;-67
2021/11/22 10:31:04;;;;;;;9.63;5.72;;;6.20;99.90;;;;;;5008485;28;20054;-67
2021/11/22 10:33:33;;;;;;;10.65;5.88;;;6.20;99.90;;;;;;4983238;28;20057;-67
2021/11/22 10:36:00;;;;;;;8.18;5.47;;;6.20;99.90;;;;;;4982532;28;20621;-67
2021/11/22 10:38:32;;;;;;;10.70;5.30;;;6.20;99.90;;;;;;4985941;28;20027;-68
2021/11/22 10:41:07;;;;;;;11.10;5.40;;;6.20;99.90;;;;;;4984827;28;20036;-68
2021/11/22 10:43:49;;;;;;;11.20;5.47;;;6.20;99.90;;;;;;5007103;28;20119;-67
2021/11/22 10:46:19;;;;;;;8.65;4.93;;;6.20;99.90;;;;;;4986405;28;20385;-67
2021/11/22 10:48:49;;;;;;;48.13;26.30;;;6.20;99.90;;;;;;4981777;28;20474;-68
2021/11/22 10:51:26;;;;;;;12.25;6.40;;;6.20;99.90;;;;;;4980162;28;20019;-68
2021/11/22 10:54:03;;;;;;;8.13;4.55;;;6.20;99.90;;;;;;4984837;28;20019;-68
2021/11/22 10:56:43;;;;;;;12.35;4.88;;;6.30;99.90;;;;;;4977753;28;20026;-67
2021/11/22 10:59:21;;;;;;;8.60;4.32;;;6.30;99.90;;;;;;4985194;28;20033;-67
2021/11/22 11:01:54;;;;;;;5.13;4.28;;;6.30;99.90;;;;;;4983386;28;20023;-69
2021/11/22 11:04:27;;;;;;;9.38;4.63;;;6.30;99.90;;;;;;4985868;28;20115;-69
2021/11/22 11:06:54;;;;;;;6.38;4.10;;;6.30;99.90;;;;;;4991537;28;20378;-69
2021/11/22 11:09:27;;;;;;;8.07;4.15;;;6.30;99.90;;;;;;4985306;28;20026;-69
2021/11/22 11:12:01;;;;;;;8.52;4.38;;;6.30;99.90;;;;;;4990873;28;20031;-69
2021/11/22 11:14:29;;;;;;;5.55;3.75;;;6.30;99.90;;;;;;4984894;28;20026;-69
2021/11/22 11:17:08;;;;;;;6.25;3.80;;;6.30;99.90;;;;;;4977501;28;20486;-67
2021/11/22 11:19:36;;;;;;;8.98;4.20;;;6.30;99.90;;;;;;4997575;28;20090;-68
2021/11/22 11:22:02;;;;;;;5.85;3.58;;;6.20;99.90;;;;;;4985991;28;20546;-67
2021/11/22 11:24:28;;;;;;;6.55;3.97;;;6.20;99.90;;;;;;4982963;28;20043;-68
2021/11/22 11:26:53;;;;;;;6.47;4.05;;;6.30;99.90;;;;;;4978036;28;20019;-67
2021/11/22 11:29:19;;;;;;;7.53;3.85;;;6.30;99.90;;;;;;4982571;28;20026;-68
2021/11/22 11:31:45;;;;;;;7.57;3.83;;;6.30;99.90;;;;;;5005069;28;20029;-71
2021/11/22 11:34:14;;;;;;;6.50;3.95;;;6.30;99.90;;;;;;5002567;28;20420;-68
2021/11/22 11:36:39;;;;;;;7.60;4.07;;;6.30;99.90;;;;;;4989431;28;20042;-68
2021/11/22 11:39:14;;;;;;;8.50;3.85;;;6.30;99.90;;;;;;4981970;28;20344;-68
2021/11/22 11:42:01;;;;;;;6.40;3.97;;;6.30;99.90;;;;;;4989063;28;20031;-68
2021/11/22 11:44:51;;;;;;;5.40;3.63;;;6.40;99.90;;;;;;4989011;28;20117;-68
2021/11/22 11:47:49;;;;;;;4.00;3.40;;;6.40;99.90;;;;;;4987646;28;20023;-68
2021/11/22 11:50:17;;;;;;;5.03;3.40;;;6.50;99.90;;;;;;4988242;28;20109;-68
2021/11/22 11:52:59;;;;;;;5.03;3.45;;;6.50;99.90;;;;;;4980407;28;20616;-68
2021/11/22 11:55:25;;;;;;;5.57;3.90;;;6.50;99.90;;;;;;4986139;28;20141;-68
2021/11/22 11:58:14;;;;;;;8.00;3.65;;;6.50;99.90;;;;;;4977446;28;20034;-68
2021/11/22 12:01:11;;;;;;;5.03;3.53;;;6.40;99.90;;;;;;4983603;28;20501;-68
2021/11/22 12:03:58;;;;;;;9.93;3.83;;;6.40;99.90;;;;;;4977654;28;20117;-68
2021/11/22 12:06:47;;;;;;;6.47;3.50;;;6.40;99.90;;;;;;4983153;28;20046;-68
2021/11/22 12:09:39;;;;;;;8.70;3.40;;;6.40;99.90;;;;;;4979805;28;20061;-68
2021/11/22 12:12:07;;;;;;;4.10;3.38;;;6.40;99.90;;;;;;4985130;28;20031;-68
2021/11/22 12:14:52;;;;;;;4.13;3.22;;;6.40;99.90;;;;;;4984374;28;20489;-68
2021/11/22 12:17:35;;;;;;;5.47;3.40;;;6.40;99.90;;;;;;4983877;28;20076;-68
2021/11/22 12:20:24;;;;;;;3.50;3.17;;;6.40;99.90;;;;;;4989800;28;20575;-69
2021/11/22 12:22:58;;;;;;;4.45;3.10;;;6.40;99.90;;;;;;4997839;28;20031;-68
2021/11/22 12:28:10;;;;;;;4.70;3.30;;;6.50;99.90;;;;;;4984861;28;20037;-67
2021/11/22 12:30:37;;;;;;;3.78;2.92;;;6.50;99.90;;;;;;4988727;28;20026;-68
2021/11/22 12:33:21;;;;;;;4.60;3.50;;;6.50;99.90;;;;;;4992372;28;20505;-67
2021/11/22 12:35:49;;;;;;;4.30;3.42;;;6.60;99.90;;;;;;4986243;28;20121;-67
2021/11/22 12:38:20;;;;;;;6.25;3.17;;;6.60;99.90;;;;;;4988666;28;20031;-68
2021/11/22 12:40:48;;;;;;;3.08;2.80;;;6.70;99.90;;;;;;4988883;28;20033;-68
2021/11/22 12:43:14;;;;;;;4.20;2.72;;;6.70;99.90;;;;;;4985002;28;20030;-67
2021/11/22 12:45:59;;;;;;;3.00;2.60;;;6.70;99.90;;;;;;4989849;28;20045;-68
2021/11/22 12:48:38;;;;;;;3.78;2.53;;;6.80;99.90;;;;;;4989642;28;20568;-66
2021/11/22 12:51:07;;;;;;;3.17;2.85;;;6.80;99.90;;;;;;4993570;28;20049;-67
2021/11/22 12:53:34;;;;;;;3.55;2.55;;;6.90;99.90;;;;;;4993414;28;20036;-67
2021/11/22 12:56:00;;;;;;;2.92;2.50;;;6.80;99.90;;;;;;4989970;28;20079;-67
2021/11/22 12:58:28;;;;;;;5.60;2.58;;;6.80;99.90;;;;;;5016176;28;20022;-67
2021/11/22 13:00:59;;;;;;;4.72;2.70;;;6.80;99.90;;;;;;4991757;28;20070;-67